sensor_id;sensor_type;location;lat;lon;timestamp;pressure;altitude;pressure_sealevel;temperature;humidity
29815;BME280;16708;50.426;7.664;2023-05-25T00:02:27;994.72;;;6.20;100.00
29815;BME280;16708;50.426;7.664;2023-05-25T00:07:21;994.75;;;6.09;100.00
29815;BME280;16708;50.426;7.664;2023-05-25T00:12:16;994.71;;;5.97;100.00
29815;BME280;16708;50.426;7.664;2023-05-25T00:17:10;994.77;;;5.90;100.00
29815;BME280;16708;50.426;7.664;2023-05-25T00:22:04;994.79;;;5.89;100.00
29815;BME280;16708;50.426;7.664;2023-05-25T00:26:58;994.84;;;5.83;100.00
29815;BME280;16708;50.426;7.664;2023-05-25T00:31:52;994.72;;;5.84;100.00
29815;BME280;16708;50.426;7.664;2023-05-25T00:36:47;994.68;;;5.73;100.00
29815;BME280;16708;50.426;7.664;2023-05-25T00:41:41;994.65;;;5.72;100.00
29815;BME280;16708;50.426;7.664;2023-05-25T00:46:35;994.70;;;5.78;100.00
29815;BME280;16708;50.426;7.664;2023-05-25T00:51:29;994.69;;;6.07;100.00
29815;BME280;16708;50.426;7.664;2023-05-25T00:56:23;994.58;;;6.29;100.00
29815;BME280;16708;50.426;7.664;2023-05-25T01:01:18;994.60;;;6.64;100.00
29815;BME280;16708;50.426;7.664;2023-05-25T01:06:12;994.56;;;6.86;100.00
29815;BME280;16708;50.426;7.664;2023-05-25T01:11:07;994.44;;;6.98;100.00
29815;BME280;16708;50.426;7.664;2023-05-25T01:16:01;994.39;;;6.95;100.00
29815;BME280;16708;50.426;7.664;2023-05-25T01:20:55;994.35;;;6.83;100.00
29815;BME280;16708;50.426;7.664;2023-05-25T01:25:50;994.32;;;6.61;100.00
29815;BME280;16708;50.426;7.664;2023-05-25T01:30:44;994.31;;;6.03;100.00
29815;BME280;16708;50.426;7.664;2023-05-25T01:35:38;994.38;;;5.90;100.00
29815;BME280;16708;50.426;7.664;2023-05-25T01:40:32;994.44;;;5.84;100.00
29815;BME280;16708;50.426;7.664;2023-05-25T01:45:26;994.49;;;5.77;100.00
29815;BME280;16708;50.426;7.664;2023-05-25T01:50:19;994.55;;;5.63;100.00
29815;BME280;16708;50.426;7.664;2023-05-25T01:55:13;994.52;;;5.57;100.00
29815;BME280;16708;50.426;7.664;2023-05-25T02:00:08;994.40;;;5.51;100.00
29815;BME280;16708;50.426;7.664;2023-05-25T02:05:02;994.38;;;5.45;100.00
29815;BME280;16708;50.426;7.664;2023-05-25T02:09:56;994.41;;;5.44;100.00
29815;BME280;16708;50.426;7.664;2023-05-25T02:14:51;994.32;;;5.17;100.00
29815;BME280;16708;50.426;7.664;2023-05-25T02:19:45;994.38;;;5.10;100.00
29815;BME280;16708;50.426;7.664;2023-05-25T02:24:39;994.37;;;5.00;100.00
29815;BME280;16708;50.426;7.664;2023-05-25T02:29:33;994.45;;;4.92;100.00
29815;BME280;16708;50.426;7.664;2023-05-25T02:34:27;994.45;;;5.12;100.00
29815;BME280;16708;50.426;7.664;2023-05-25T02:39:22;994.51;;;5.11;100.00
29815;BME280;16708;50.426;7.664;2023-05-25T02:44:16;994.59;;;4.94;100.00
29815;BME280;16708;50.426;7.664;2023-05-25T02:49:09;994.59;;;4.79;100.00
29815;BME280;16708;50.426;7.664;2023-05-25T02:54:02;994.72;;;4.82;100.00
29815;BME280;16708;50.426;7.664;2023-05-25T02:58:57;994.82;;;4.72;100.00
29815;BME280;16708;50.426;7.664;2023-05-25T03:03:51;994.74;;;4.77;100.00
29815;BME280;16708;50.426;7.664;2023-05-25T03:08:46;994.74;;;4.72;100.00
29815;BME280;16708;50.426;7.664;2023-05-25T03:13:39;994.87;;;4.58;100.00
29815;BME280;16708;50.426;7.664;2023-05-25T03:18:33;994.94;;;4.66;100.00
29815;BME280;16708;50.426;7.664;2023-05-25T03:23:27;995.03;;;4.57;100.00
29815;BME280;16708;50.426;7.664;2023-05-25T03:28:21;995.01;;;4.56;100.00
29815;BME280;16708;50.426;7.664;2023-05-25T03:33:16;994.94;;;4.52;100.00
29815;BME280;16708;50.426;7.664;2023-05-25T03:38:10;995.04;;;4.45;100.00
29815;BME280;16708;50.426;7.664;2023-05-25T03:43:04;995.02;;;4.45;100.00
29815;BME280;16708;50.426;7.664;2023-05-25T03:47:58;994.97;;;4.43;100.00
29815;BME280;16708;50.426;7.664;2023-05-25T03:52:53;995.07;;;4.44;100.00
29815;BME280;16708;50.426;7.664;2023-05-25T03:57:47;995.11;;;4.48;100.00
29815;BME280;16708;50.426;7.664;2023-05-25T04:02:42;995.04;;;4.55;100.00
29815;BME280;16708;50.426;7.664;2023-05-25T04:07:36;995.16;;;4.60;100.00
29815;BME280;16708;50.426;7.664;2023-05-25T04:12:30;995.10;;;4.74;100.00
29815;BME280;16708;50.426;7.664;2023-05-25T04:17:25;995.18;;;4.91;100.00
29815;BME280;16708;50.426;7.664;2023-05-25T04:22:19;995.34;;;5.05;100.00
29815;BME280;16708;50.426;7.664;2023-05-25T04:27:12;995.33;;;5.20;100.00
29815;BME280;16708;50.426;7.664;2023-05-25T04:32:07;995.39;;;5.48;100.00
29815;BME280;16708;50.426;7.664;2023-05-25T04:37:01;995.41;;;5.65;100.00
29815;BME280;16708;50.426;7.664;2023-05-25T04:41:55;995.40;;;5.86;100.00
29815;BME280;16708;50.426;7.664;2023-05-25T04:46:48;995.57;;;6.06;100.00
29815;BME280;16708;50.426;7.664;2023-05-25T04:51:41;995.46;;;6.19;100.00
29815;BME280;16708;50.426;7.664;2023-05-25T04:56:36;995.65;;;6.30;100.00
29815;BME280;16708;50.426;7.664;2023-05-25T05:01:30;995.68;;;6.62;100.00
29815;BME280;16708;50.426;7.664;2023-05-25T05:06:24;995.77;;;6.86;100.00
29815;BME280;16708;50.426;7.664;2023-05-25T05:11:19;995.77;;;7.25;100.00
29815;BME280;16708;50.426;7.664;2023-05-25T05:16:13;995.74;;;7.45;100.00
29815;BME280;16708;50.426;7.664;2023-05-25T05:21:08;995.86;;;7.58;100.00
29815;BME280;16708;50.426;7.664;2023-05-25T05:26:02;995.98;;;7.70;100.00
29815;BME280;16708;50.426;7.664;2023-05-25T05:30:56;996.05;;;7.90;100.00
29815;BME280;16708;50.426;7.664;2023-05-25T05:35:51;996.17;;;8.02;100.00
29815;BME280;16708;50.426;7.664;2023-05-25T05:40:47;996.13;;;8.35;100.00
29815;BME280;16708;50.426;7.664;2023-05-25T05:45:40;996.21;;;8.53;100.00
29815;BME280;16708;50.426;7.664;2023-05-25T05:50:35;996.07;;;8.96;100.00
29815;BME280;16708;50.426;7.664;2023-05-25T05:55:30;996.08;;;9.29;100.00
29815;BME280;16708;50.426;7.664;2023-05-25T06:00:24;996.13;;;9.55;100.00
29815;BME280;16708;50.426;7.664;2023-05-25T06:05:19;996.05;;;9.85;100.00
29815;BME280;16708;50.426;7.664;2023-05-25T06:10:13;996.04;;;10.18;100.00
29815;BME280;16708;50.426;7.664;2023-05-25T06:15:08;996.06;;;10.66;100.00
29815;BME280;16708;50.426;7.664;2023-05-25T06:20:02;996.12;;;10.87;100.00
29815;BME280;16708;50.426;7.664;2023-05-25T06:24:57;996.08;;;11.22;100.00
29815;BME280;16708;50.426;7.664;2023-05-25T06:29:51;996.07;;;11.43;100.00
29815;BME280;16708;50.426;7.664;2023-05-25T06:34:46;996.02;;;11.72;100.00
29815;BME280;16708;50.426;7.664;2023-05-25T06:39:40;996.25;;;11.94;100.00
29815;BME280;16708;50.426;7.664;2023-05-25T06:44:34;996.21;;;12.12;100.00
29815;BME280;16708;50.426;7.664;2023-05-25T06:49:29;996.15;;;12.16;100.00
29815;BME280;16708;50.426;7.664;2023-05-25T06:54:24;996.29;;;12.48;100.00
29815;BME280;16708;50.426;7.664;2023-05-25T06:59:18;996.32;;;12.73;100.00
29815;BME280;16708;50.426;7.664;2023-05-25T07:04:13;996.32;;;12.92;100.00
29815;BME280;16708;50.426;7.664;2023-05-25T07:09:07;996.35;;;13.11;100.00
29815;BME280;16708;50.426;7.664;2023-05-25T07:14:02;996.32;;;12.99;100.00
29815;BME280;16708;50.426;7.664;2023-05-25T07:18:56;996.35;;;12.75;100.00
29815;BME280;16708;50.426;7.664;2023-05-25T07:23:50;996.31;;;12.26;100.00
29815;BME280;16708;50.426;7.664;2023-05-25T07:28:45;996.31;;;12.21;100.00
29815;BME280;16708;50.426;7.664;2023-05-25T07:33:39;996.27;;;12.22;100.00
29815;BME280;16708;50.426;7.664;2023-05-25T07:38:33;996.33;;;12.58;100.00
29815;BME280;16708;50.426;7.664;2023-05-25T07:43:27;996.30;;;13.03;100.00
29815;BME280;16708;50.426;7.664;2023-05-25T07:48:22;996.20;;;13.07;100.00
29815;BME280;16708;50.426;7.664;2023-05-25T07:53:17;996.19;;;13.35;100.00
29815;BME280;16708;50.426;7.664;2023-05-25T07:58:11;996.21;;;14.18;100.00
29815;BME280;16708;50.426;7.664;2023-05-25T08:03:06;996.25;;;14.62;100.00
29815;BME280;16708;50.426;7.664;2023-05-25T08:08:01;996.18;;;14.67;100.00
29815;BME280;16708;50.426;7.664;2023-05-25T08:12:55;996.35;;;14.87;100.00
29815;BME280;16708;50.426;7.664;2023-05-25T08:17:50;996.25;;;14.37;100.00
29815;BME280;16708;50.426;7.664;2023-05-25T08:22:44;996.20;;;14.59;100.00
29815;BME280;16708;50.426;7.664;2023-05-25T08:27:38;996.21;;;14.91;100.00
29815;BME280;16708;50.426;7.664;2023-05-25T08:32:33;996.21;;;15.15;100.00
29815;BME280;16708;50.426;7.664;2023-05-25T08:37:28;996.24;;;15.18;100.00
29815;BME280;16708;50.426;7.664;2023-05-25T08:42:22;996.32;;;15.85;100.00
29815;BME280;16708;50.426;7.664;2023-05-25T08:47:16;996.22;;;15.22;100.00
29815;BME280;16708;50.426;7.664;2023-05-25T08:52:11;996.19;;;16.35;100.00
29815;BME280;16708;50.426;7.664;2023-05-25T08:57:05;996.10;;;17.04;90.55
29815;BME280;16708;50.426;7.664;2023-05-25T09:02:00;996.09;;;17.56;96.79
29815;BME280;16708;50.426;7.664;2023-05-25T09:06:54;996.17;;;18.36;88.11
29815;BME280;16708;50.426;7.664;2023-05-25T09:11:49;996.20;;;18.06;75.35
29815;BME280;16708;50.426;7.664;2023-05-25T09:16:44;996.19;;;17.89;87.29
29815;BME280;16708;50.426;7.664;2023-05-25T09:21:38;996.19;;;18.39;77.15
29815;BME280;16708;50.426;7.664;2023-05-25T09:26:33;996.16;;;18.16;70.35
29815;BME280;16708;50.426;7.664;2023-05-25T09:36:21;996.13;;;18.86;56.78
29815;BME280;16708;50.426;7.664;2023-05-25T09:41:15;996.13;;;18.91;51.98
29815;BME280;16708;50.426;7.664;2023-05-25T09:46:09;996.26;;;19.22;57.29
29815;BME280;16708;50.426;7.664;2023-05-25T09:51:03;996.15;;;20.77;48.96
29815;BME280;16708;50.426;7.664;2023-05-25T09:55:58;996.15;;;23.17;43.29
29815;BME280;16708;50.426;7.664;2023-05-25T10:00:55;996.04;;;22.96;39.25
29815;BME280;16708;50.426;7.664;2023-05-25T10:05:51;996.18;;;22.93;37.60
29815;BME280;16708;50.426;7.664;2023-05-25T10:10:47;996.21;;;23.83;38.09
29815;BME280;16708;50.426;7.664;2023-05-25T10:15:42;996.15;;;24.11;36.32
29815;BME280;16708;50.426;7.664;2023-05-25T10:20:37;996.21;;;24.03;35.74
29815;BME280;16708;50.426;7.664;2023-05-25T10:25:31;996.08;;;24.36;35.71
29815;BME280;16708;50.426;7.664;2023-05-25T10:30:26;996.21;;;25.24;35.32
29815;BME280;16708;50.426;7.664;2023-05-25T10:35:21;996.08;;;24.91;34.80
29815;BME280;16708;50.426;7.664;2023-05-25T10:40:16;996.12;;;24.00;38.12
29815;BME280;16708;50.426;7.664;2023-05-25T10:45:10;996.14;;;23.81;37.03
29815;BME280;16708;50.426;7.664;2023-05-25T10:50:05;996.10;;;24.61;35.65
29815;BME280;16708;50.426;7.664;2023-05-25T10:54:59;996.16;;;24.13;37.67
29815;BME280;16708;50.426;7.664;2023-05-25T10:59:52;995.93;;;25.81;33.59
29815;BME280;16708;50.426;7.664;2023-05-25T11:09:42;996.07;;;24.88;37.57
29815;BME280;16708;50.426;7.664;2023-05-25T11:19:30;995.95;;;24.09;36.10
29815;BME280;16708;50.426;7.664;2023-05-25T11:24:24;995.96;;;25.36;36.85
29815;BME280;16708;50.426;7.664;2023-05-25T11:29:19;995.98;;;24.53;36.42
29815;BME280;16708;50.426;7.664;2023-05-25T11:34:14;995.89;;;24.86;36.25
29815;BME280;16708;50.426;7.664;2023-05-25T11:39:09;995.88;;;25.99;34.92
29815;BME280;16708;50.426;7.664;2023-05-25T11:44:03;995.88;;;24.76;35.20
29815;BME280;16708;50.426;7.664;2023-05-25T11:48:58;995.80;;;25.85;31.95
29815;BME280;16708;50.426;7.664;2023-05-25T11:58:47;995.84;;;27.33;30.27
29815;BME280;16708;50.426;7.664;2023-05-25T12:03:41;995.70;;;24.92;33.21
29815;BME280;16708;50.426;7.664;2023-05-25T12:08:35;995.76;;;26.59;32.69
29815;BME280;16708;50.426;7.664;2023-05-25T12:13:30;995.76;;;27.49;30.07
29815;BME280;16708;50.426;7.664;2023-05-25T12:18:25;995.56;;;25.50;33.42
29815;BME280;16708;50.426;7.664;2023-05-25T12:23:20;995.56;;;26.70;31.67
29815;BME280;16708;50.426;7.664;2023-05-25T12:28:14;995.55;;;27.20;30.94
29815;BME280;16708;50.426;7.664;2023-05-25T12:33:09;995.50;;;26.51;31.59
29815;BME280;16708;50.426;7.664;2023-05-25T12:42:56;995.57;;;28.69;28.65
29815;BME280;16708;50.426;7.664;2023-05-25T12:57:38;995.53;;;27.32;29.45
29815;BME280;16708;50.426;7.664;2023-05-25T13:02:32;995.45;;;27.14;29.90
29815;BME280;16708;50.426;7.664;2023-05-25T13:07:27;995.42;;;26.87;30.38
29815;BME280;16708;50.426;7.664;2023-05-25T13:12:21;995.41;;;28.28;29.43
29815;BME280;16708;50.426;7.664;2023-05-25T13:17:16;995.32;;;29.27;27.69
29815;BME280;16708;50.426;7.664;2023-05-25T13:22:10;995.26;;;30.36;26.93
29815;BME280;16708;50.426;7.664;2023-05-25T13:27:04;995.25;;;29.12;27.65
29815;BME280;16708;50.426;7.664;2023-05-25T13:31:58;995.27;;;29.22;26.65
29815;BME280;16708;50.426;7.664;2023-05-25T13:36:53;995.12;;;28.05;27.89
29815;BME280;16708;50.426;7.664;2023-05-25T13:41:47;995.20;;;28.38;29.75
29815;BME280;16708;50.426;7.664;2023-05-25T13:46:41;995.15;;;28.53;27.32
29815;BME280;16708;50.426;7.664;2023-05-25T13:51:36;995.09;;;29.96;27.48
29815;BME280;16708;50.426;7.664;2023-05-25T13:56:31;995.14;;;30.53;24.90
29815;BME280;16708;50.426;7.664;2023-05-25T14:01:25;995.03;;;29.98;24.92
29815;BME280;16708;50.426;7.664;2023-05-25T14:06:20;995.09;;;27.85;29.16
29815;BME280;16708;50.426;7.664;2023-05-25T14:11:14;995.13;;;30.06;26.50
29815;BME280;16708;50.426;7.664;2023-05-25T14:16:09;995.07;;;30.29;26.72
29815;BME280;16708;50.426;7.664;2023-05-25T14:21:03;995.02;;;29.74;26.66
29815;BME280;16708;50.426;7.664;2023-05-25T14:25:57;995.05;;;30.21;26.69
29815;BME280;16708;50.426;7.664;2023-05-25T14:30:52;994.98;;;29.90;26.66
29815;BME280;16708;50.426;7.664;2023-05-25T14:35:46;994.93;;;28.82;26.52
29815;BME280;16708;50.426;7.664;2023-05-25T14:40:41;994.86;;;29.27;27.03
29815;BME280;16708;50.426;7.664;2023-05-25T14:45:35;994.79;;;29.82;27.08
29815;BME280;16708;50.426;7.664;2023-05-25T14:50:30;994.93;;;30.34;26.09
29815;BME280;16708;50.426;7.664;2023-05-25T14:55:24;994.91;;;30.36;26.43
29815;BME280;16708;50.426;7.664;2023-05-25T15:00:19;994.84;;;29.72;27.00
29815;BME280;16708;50.426;7.664;2023-05-25T15:05:13;994.82;;;29.82;26.74
29815;BME280;16708;50.426;7.664;2023-05-25T15:10:07;994.77;;;28.54;28.20
29815;BME280;16708;50.426;7.664;2023-05-25T15:15:01;994.73;;;30.20;25.78
29815;BME280;16708;50.426;7.664;2023-05-25T15:19:56;994.85;;;28.64;27.52
29815;BME280;16708;50.426;7.664;2023-05-25T15:24:50;994.84;;;29.65;27.58
29815;BME280;16708;50.426;7.664;2023-05-25T15:29:44;994.79;;;29.49;27.16
29815;BME280;16708;50.426;7.664;2023-05-25T15:34:39;994.77;;;29.12;27.42
29815;BME280;16708;50.426;7.664;2023-05-25T15:39:32;994.77;;;29.71;27.01
29815;BME280;16708;50.426;7.664;2023-05-25T15:44:27;994.82;;;29.24;29.08
29815;BME280;16708;50.426;7.664;2023-05-25T15:49:21;994.73;;;29.16;29.89
29815;BME280;16708;50.426;7.664;2023-05-25T15:54:15;994.82;;;28.41;30.46
29815;BME280;16708;50.426;7.664;2023-05-25T15:59:09;994.76;;;28.57;30.42
29815;BME280;16708;50.426;7.664;2023-05-25T16:04:01;994.79;;;28.52;31.02
29815;BME280;16708;50.426;7.664;2023-05-25T16:08:55;994.81;;;27.48;32.25
29815;BME280;16708;50.426;7.664;2023-05-25T16:13:49;994.87;;;27.89;31.83
29815;BME280;16708;50.426;7.664;2023-05-25T16:18:43;994.82;;;27.90;32.02
29815;BME280;16708;50.426;7.664;2023-05-25T16:23:38;994.91;;;27.35;33.62
29815;BME280;16708;50.426;7.664;2023-05-25T16:28:31;994.86;;;27.40;32.49
29815;BME280;16708;50.426;7.664;2023-05-25T16:33:25;994.92;;;27.30;33.70
29815;BME280;16708;50.426;7.664;2023-05-25T16:38:20;994.91;;;26.76;33.38
29815;BME280;16708;50.426;7.664;2023-05-25T16:43:14;994.97;;;25.95;34.97
29815;BME280;16708;50.426;7.664;2023-05-25T16:48:07;994.89;;;26.72;34.92
29815;BME280;16708;50.426;7.664;2023-05-25T16:53:01;994.87;;;24.40;37.68
29815;BME280;16708;50.426;7.664;2023-05-25T16:57:55;994.92;;;25.08;37.14
29815;BME280;16708;50.426;7.664;2023-05-25T17:02:49;994.89;;;25.07;37.74
29815;BME280;16708;50.426;7.664;2023-05-25T17:07:43;994.89;;;25.36;37.21
29815;BME280;16708;50.426;7.664;2023-05-25T17:12:38;994.95;;;24.60;37.04
29815;BME280;16708;50.426;7.664;2023-05-25T17:17:31;994.98;;;24.68;38.43
29815;BME280;16708;50.426;7.664;2023-05-25T17:22:26;994.96;;;23.53;39.62
29815;BME280;16708;50.426;7.664;2023-05-25T17:27:19;995.00;;;23.67;39.44
29815;BME280;16708;50.426;7.664;2023-05-25T17:32:14;995.03;;;23.54;40.45
29815;BME280;16708;50.426;7.664;2023-05-25T17:37:08;995.00;;;24.26;39.12
29815;BME280;16708;50.426;7.664;2023-05-25T17:42:02;995.00;;;22.60;42.87
29815;BME280;16708;50.426;7.664;2023-05-25T17:46:56;995.01;;;22.30;43.30
29815;BME280;16708;50.426;7.664;2023-05-25T17:51:50;995.13;;;23.49;40.31
29815;BME280;16708;50.426;7.664;2023-05-25T17:56:45;995.09;;;23.14;41.23
29815;BME280;16708;50.426;7.664;2023-05-25T18:01:37;995.18;;;22.50;44.25
29815;BME280;16708;50.426;7.664;2023-05-25T18:06:29;995.19;;;22.20;44.34
29815;BME280;16708;50.426;7.664;2023-05-25T18:11:23;995.21;;;21.62;45.99
29815;BME280;16708;50.426;7.664;2023-05-25T18:16:17;995.17;;;22.47;44.25
29815;BME280;16708;50.426;7.664;2023-05-25T18:21:12;995.17;;;21.14;47.83
29815;BME280;16708;50.426;7.664;2023-05-25T18:26:06;995.23;;;20.71;52.35
29815;BME280;16708;50.426;7.664;2023-05-25T18:30:59;995.18;;;20.75;52.76
29815;BME280;16708;50.426;7.664;2023-05-25T18:35:54;995.29;;;20.31;55.51
29815;BME280;16708;50.426;7.664;2023-05-25T18:40:48;995.21;;;19.40;62.33
29815;BME280;16708;50.426;7.664;2023-05-25T18:45:42;995.26;;;18.46;72.33
29815;BME280;16708;50.426;7.664;2023-05-25T18:50:35;995.25;;;17.39;88.67
29815;BME280;16708;50.426;7.664;2023-05-25T18:55:27;995.29;;;17.00;97.92
29815;BME280;16708;50.426;7.664;2023-05-25T19:00:21;995.28;;;17.04;95.93
29815;BME280;16708;50.426;7.664;2023-05-25T19:05:15;995.32;;;16.57;100.00
29815;BME280;16708;50.426;7.664;2023-05-25T19:10:09;995.43;;;16.40;100.00
29815;BME280;16708;50.426;7.664;2023-05-25T19:15:01;995.46;;;16.03;100.00
29815;BME280;16708;50.426;7.664;2023-05-25T19:19:56;995.49;;;15.78;100.00
29815;BME280;16708;50.426;7.664;2023-05-25T19:24:49;995.61;;;15.76;100.00
29815;BME280;16708;50.426;7.664;2023-05-25T19:29:43;995.72;;;15.68;100.00
29815;BME280;16708;50.426;7.664;2023-05-25T19:34:36;995.78;;;15.30;100.00
29815;BME280;16708;50.426;7.664;2023-05-25T19:39:30;995.84;;;15.20;100.00
29815;BME280;16708;50.426;7.664;2023-05-25T19:44:24;995.79;;;15.01;100.00
29815;BME280;16708;50.426;7.664;2023-05-25T19:49:17;995.84;;;15.08;100.00
29815;BME280;16708;50.426;7.664;2023-05-25T19:54:11;996.00;;;15.12;100.00
29815;BME280;16708;50.426;7.664;2023-05-25T19:59:05;995.89;;;14.59;100.00
29815;BME280;16708;50.426;7.664;2023-05-25T20:03:58;995.99;;;14.51;100.00
29815;BME280;16708;50.426;7.664;2023-05-25T20:08:52;996.06;;;14.30;100.00
29815;BME280;16708;50.426;7.664;2023-05-25T20:13:46;996.13;;;14.11;100.00
29815;BME280;16708;50.426;7.664;2023-05-25T20:18:40;996.21;;;14.01;100.00
29815;BME280;16708;50.426;7.664;2023-05-25T20:23:34;996.33;;;13.84;100.00
29815;BME280;16708;50.426;7.664;2023-05-25T20:28:29;996.32;;;13.72;100.00
29815;BME280;16708;50.426;7.664;2023-05-25T20:33:23;996.31;;;13.55;100.00
29815;BME280;16708;50.426;7.664;2023-05-25T20:38:17;996.41;;;13.45;100.00
29815;BME280;16708;50.426;7.664;2023-05-25T20:43:09;996.42;;;13.39;100.00
29815;BME280;16708;50.426;7.664;2023-05-25T20:48:03;996.46;;;13.23;100.00
29815;BME280;16708;50.426;7.664;2023-05-25T20:52:58;996.58;;;13.07;100.00
29815;BME280;16708;50.426;7.664;2023-05-25T20:57:51;996.53;;;12.94;100.00
29815;BME280;16708;50.426;7.664;2023-05-25T21:02:46;996.64;;;12.85;100.00
29815;BME280;16708;50.426;7.664;2023-05-25T21:07:40;996.63;;;12.73;100.00
29815;BME280;16708;50.426;7.664;2023-05-25T21:12:34;996.61;;;12.55;100.00
29815;BME280;16708;50.426;7.664;2023-05-25T21:17:28;996.64;;;12.47;100.00
29815;BME280;16708;50.426;7.664;2023-05-25T21:22:22;996.59;;;12.38;100.00
29815;BME280;16708;50.426;7.664;2023-05-25T21:27:17;996.68;;;12.26;100.00
29815;BME280;16708;50.426;7.664;2023-05-25T21:32:11;996.66;;;12.12;100.00
29815;BME280;16708;50.426;7.664;2023-05-25T21:37:05;996.57;;;11.97;100.00
29815;BME280;16708;50.426;7.664;2023-05-25T21:42:00;996.68;;;11.94;100.00
29815;BME280;16708;50.426;7.664;2023-05-25T21:46:54;996.61;;;11.87;100.00
29815;BME280;16708;50.426;7.664;2023-05-25T21:51:49;996.66;;;11.79;100.00
29815;BME280;16708;50.426;7.664;2023-05-25T21:56:43;996.67;;;11.65;100.00
29815;BME280;16708;50.426;7.664;2023-05-25T22:01:38;996.64;;;11.54;100.00
29815;BME280;16708;50.426;7.664;2023-05-25T22:06:32;996.68;;;11.35;100.00
29815;BME280;16708;50.426;7.664;2023-05-25T22:11:27;996.65;;;11.25;100.00
29815;BME280;16708;50.426;7.664;2023-05-25T22:16:21;996.65;;;11.29;100.00
29815;BME280;16708;50.426;7.664;2023-05-25T22:21:15;996.69;;;11.18;100.00
29815;BME280;16708;50.426;7.664;2023-05-25T22:26:10;996.71;;;11.21;100.00
29815;BME280;16708;50.426;7.664;2023-05-25T22:31:03;996.74;;;11.04;100.00
29815;BME280;16708;50.426;7.664;2023-05-25T22:35:58;996.74;;;10.94;100.00
29815;BME280;16708;50.426;7.664;2023-05-25T22:40:52;996.74;;;10.91;100.00
29815;BME280;16708;50.426;7.664;2023-05-25T22:45:46;996.79;;;10.85;100.00
29815;BME280;16708;50.426;7.664;2023-05-25T22:50:41;996.76;;;10.72;100.00
29815;BME280;16708;50.426;7.664;2023-05-25T22:55:35;996.80;;;10.66;100.00
29815;BME280;16708;50.426;7.664;2023-05-25T23:00:30;996.85;;;10.60;100.00
29815;BME280;16708;50.426;7.664;2023-05-25T23:05:24;996.87;;;10.55;100.00
29815;BME280;16708;50.426;7.664;2023-05-25T23:10:18;996.83;;;10.47;100.00
29815;BME280;16708;50.426;7.664;2023-05-25T23:15:13;996.83;;;10.35;100.00
29815;BME280;16708;50.426;7.664;2023-05-25T23:20:07;996.84;;;10.26;100.00
29815;BME280;16708;50.426;7.664;2023-05-25T23:25:02;996.85;;;10.13;100.00
29815;BME280;16708;50.426;7.664;2023-05-25T23:29:56;996.87;;;10.06;100.00
29815;BME280;16708;50.426;7.664;2023-05-25T23:34:51;996.96;;;9.77;100.00
29815;BME280;16708;50.426;7.664;2023-05-25T23:39:45;997.04;;;9.55;100.00
29815;BME280;16708;50.426;7.664;2023-05-25T23:44:39;997.09;;;9.48;100.00
29815;BME280;16708;50.426;7.664;2023-05-25T23:49:33;997.08;;;9.39;100.00
29815;BME280;16708;50.426;7.664;2023-05-25T23:54:28;997.10;;;9.24;100.00
29815;BME280;16708;50.426;7.664;2023-05-25T23:59:21;997.06;;;9.16;100.00
